createdAt,value
2018-08-30T00:00:19.365Z,0
2018-08-30T00:01:20.092Z,0
2018-08-30T00:02:21.105Z,0
2018-08-30T00:03:21.979Z,0
2018-08-30T00:04:22.723Z,0
2018-08-30T00:05:23.444Z,0
2018-08-30T00:06:24.170Z,0
2018-08-30T00:07:25.139Z,0
2018-08-30T00:08:25.944Z,0
2018-08-30T00:09:26.725Z,0
2018-08-30T00:10:27.995Z,0
2018-08-30T00:11:28.724Z,0
2018-08-30T00:12:29.572Z,0
2018-08-30T00:13:30.297Z,0
2018-08-30T00:14:31.030Z,0
2018-08-30T00:15:31.836Z,0
2018-08-30T00:16:32.547Z,0
2018-08-30T00:17:33.712Z,0
2018-08-30T00:18:34.492Z,0
2018-08-30T00:19:35.240Z,0
2018-08-30T00:20:35.977Z,0
2018-08-30T00:21:36.701Z,0
2018-08-30T00:22:37.428Z,0
2018-08-30T00:23:38.405Z,0
2018-08-30T00:24:39.166Z,0
2018-08-30T00:25:39.903Z,0
2018-08-30T00:26:40.625Z,0
2018-08-30T00:27:41.339Z,0
2018-08-30T00:28:42.339Z,0
2018-08-30T00:29:43.107Z,0
2018-08-30T00:30:43.836Z,0
2018-08-30T00:31:44.547Z,0
2018-08-30T00:32:45.283Z,0
2018-08-30T00:33:46.007Z,0
2018-08-30T00:34:47.051Z,0
2018-08-30T00:35:47.763Z,0
2018-08-30T00:36:48.493Z,0
2018-08-30T00:37:49.228Z,0
2018-08-30T00:38:49.952Z,0
2018-08-30T00:39:51.256Z,0
2018-08-30T00:40:51.968Z,0
2018-08-30T00:41:52.945Z,0
2018-08-30T00:42:53.663Z,0
2018-08-30T00:43:54.641Z,0
2018-08-30T00:44:55.401Z,0
2018-08-30T00:45:56.129Z,0
2018-08-30T00:46:56.853Z,0
2018-08-30T00:47:57.581Z,0
2018-08-30T00:48:58.298Z,0
2018-08-30T00:49:59.026Z,0
2018-08-30T00:50:59.748Z,0
2018-08-30T00:52:00.474Z,0
2018-08-30T00:53:01.205Z,0
2018-08-30T00:54:02.174Z,0
2018-08-30T00:55:02.908Z,0
2018-08-30T00:56:03.622Z,0
2018-08-30T00:57:04.437Z,0
2018-08-30T00:58:05.216Z,0
2018-08-30T00:59:06.007Z,0
2018-08-30T01:00:06.809Z,0
2018-08-30T01:01:07.643Z,0
2018-08-30T01:02:08.786Z,0
2018-08-30T01:03:09.518Z,0
2018-08-30T01:04:10.445Z,0
2018-08-30T01:05:11.684Z,0
2018-08-30T01:06:12.424Z,0
2018-08-30T01:07:13.591Z,0
2018-08-30T01:08:14.389Z,0
2018-08-30T01:09:15.162Z,0
2018-08-30T01:10:15.991Z,0
2018-08-30T01:11:17.164Z,0
2018-08-30T01:12:17.955Z,0
2018-08-30T01:13:18.785Z,0
2018-08-30T01:14:19.542Z,0
2018-08-30T01:15:20.460Z,0
2018-08-30T01:16:21.255Z,0
2018-08-30T01:17:21.994Z,0
2018-08-30T01:18:23.225Z,0
2018-08-30T01:19:24.001Z,0
2018-08-30T01:20:25.236Z,0
2018-08-30T01:21:25.965Z,0
2018-08-30T01:22:26.868Z,0
2018-08-30T01:23:27.617Z,0
2018-08-30T01:24:28.497Z,0
2018-08-30T01:25:29.296Z,0
2018-08-30T01:26:30.028Z,0
2018-08-30T01:27:30.747Z,0
2018-08-30T01:28:31.482Z,0
2018-08-30T01:29:32.197Z,0
2018-08-30T01:30:33.162Z,0
2018-08-30T01:31:33.885Z,0
2018-08-30T01:32:34.596Z,0
2018-08-30T01:33:35.558Z,0
2018-08-30T01:34:36.296Z,0
2018-08-30T01:35:37.030Z,0
2018-08-30T01:36:37.761Z,0
2018-08-30T01:37:38.732Z,0
2018-08-30T01:38:39.482Z,0
2018-08-30T01:39:40.199Z,0
2018-08-30T01:40:41.181Z,0
2018-08-30T01:41:41.897Z,0
2018-08-30T01:42:42.616Z,0
2018-08-30T01:43:43.597Z,0
2018-08-30T01:44:44.363Z,0
2018-08-30T01:45:45.088Z,0
2018-08-30T01:46:45.812Z,0
2018-08-30T01:47:46.536Z,0
2018-08-30T01:48:47.515Z,0
2018-08-30T01:49:48.224Z,0
2018-08-30T01:50:49.294Z,0
2018-08-30T01:51:50.021Z,0
2018-08-30T01:52:51.030Z,0
2018-08-30T01:53:51.753Z,0
2018-08-30T01:54:52.464Z,0
2018-08-30T01:55:53.227Z,0
2018-08-30T01:56:53.938Z,0
2018-08-30T01:57:54.661Z,0
2018-08-30T01:58:55.389Z,0
2018-08-30T01:59:56.108Z,0
2018-08-30T02:00:56.822Z,0
2018-08-30T02:01:57.551Z,0
2018-08-30T02:02:58.268Z,0
2018-08-30T02:03:59.003Z,0
2018-08-30T02:04:59.726Z,0
2018-08-30T02:06:00.447Z,0
2018-08-30T02:07:01.184Z,0
2018-08-30T02:08:01.900Z,0
2018-08-30T02:09:02.639Z,0
2018-08-30T02:10:03.353Z,0
2018-08-30T02:11:04.079Z,0
2018-08-30T02:12:04.816Z,0
2018-08-30T02:13:05.545Z,0
2018-08-30T02:14:06.268Z,0
2018-08-30T02:15:06.981Z,0
2018-08-30T02:16:07.703Z,0
2018-08-30T02:17:08.428Z,0
2018-08-30T02:18:09.151Z,0
2018-08-30T02:19:09.878Z,0
2018-08-30T02:20:10.618Z,0
2018-08-30T02:21:11.340Z,0
2018-08-30T02:22:12.059Z,0
2018-08-30T02:23:12.793Z,0
2018-08-30T02:24:13.589Z,0
2018-08-30T02:25:14.320Z,0
2018-08-30T02:26:15.026Z,0
2018-08-30T02:27:15.758Z,0
2018-08-30T02:28:16.490Z,0
2018-08-30T02:29:17.259Z,0
2018-08-30T02:30:17.985Z,0
2018-08-30T02:31:18.716Z,0
2018-08-30T02:32:19.435Z,0
2018-08-30T02:33:20.162Z,0
2018-08-30T02:34:20.900Z,0
2018-08-30T02:35:21.689Z,0
2018-08-30T02:36:22.424Z,0
2018-08-30T02:37:23.144Z,0
2018-08-30T02:38:23.873Z,0
2018-08-30T02:39:24.595Z,0
2018-08-30T02:40:25.320Z,0
2018-08-30T02:41:26.293Z,0
2018-08-30T02:42:27.016Z,0
2018-08-30T02:43:27.742Z,0
2018-08-30T02:44:28.456Z,0
2018-08-30T02:45:29.192Z,0
2018-08-30T02:46:29.905Z,0
2018-08-30T02:47:30.618Z,0
2018-08-30T02:48:31.339Z,0
2018-08-30T02:49:32.060Z,0
2018-08-30T02:50:32.783Z,0
2018-08-30T02:51:33.500Z,0
2018-08-30T02:52:34.224Z,0
2018-08-30T02:53:34.939Z,0
2018-08-30T02:54:35.663Z,0
2018-08-30T02:55:36.379Z,0
2018-08-30T02:56:37.099Z,0
2018-08-30T02:57:37.813Z,0
2018-08-30T02:58:38.583Z,0
2018-08-30T02:59:39.319Z,0
2018-08-30T03:00:40.283Z,0
2018-08-30T03:01:41.001Z,0
2018-08-30T03:02:41.967Z,0
2018-08-30T03:03:42.747Z,0
2018-08-30T03:04:43.502Z,0
2018-08-30T03:05:44.237Z,0
2018-08-30T03:06:44.970Z,0
2018-08-30T03:07:45.692Z,0
2018-08-30T03:08:46.416Z,0
2018-08-30T03:09:47.142Z,0
2018-08-30T03:10:47.908Z,0
2018-08-30T03:11:48.629Z,0
2018-08-30T03:12:49.347Z,0
2018-08-30T03:13:50.072Z,0
2018-08-30T03:14:50.799Z,0
2018-08-30T03:15:51.584Z,0
2018-08-30T03:16:52.312Z,0
2018-08-30T03:17:53.028Z,0
2018-08-30T03:18:53.745Z,0
2018-08-30T03:19:54.473Z,0
2018-08-30T03:20:55.194Z,0
2018-08-30T03:21:55.919Z,0
2018-08-30T03:22:56.652Z,0
2018-08-30T03:23:57.365Z,0
2018-08-30T03:24:58.090Z,0
2018-08-30T03:25:58.808Z,0
2018-08-30T03:26:59.536Z,0
2018-08-30T03:28:00.251Z,0
2018-08-30T03:29:01.227Z,0
2018-08-30T03:30:02.006Z,0
2018-08-30T03:31:02.840Z,0
2018-08-30T03:32:03.439Z,0
2018-08-30T03:33:04.172Z,0
2018-08-30T03:34:04.891Z,0
2018-08-30T03:35:05.609Z,0
2018-08-30T03:36:06.381Z,0
2018-08-30T03:37:07.095Z,0
2018-08-30T03:38:08.059Z,0
2018-08-30T03:39:08.791Z,0
2018-08-30T03:40:09.507Z,0
2018-08-30T03:41:10.474Z,0
2018-08-30T03:42:11.210Z,0
2018-08-30T03:43:12.283Z,0
2018-08-30T03:44:12.988Z,0
2018-08-30T03:45:14.204Z,0
2018-08-30T03:46:14.915Z,0
2018-08-30T03:47:15.637Z,0
2018-08-30T03:48:16.363Z,0
2018-08-30T03:49:17.076Z,0
2018-08-30T03:50:17.795Z,0
2018-08-30T03:51:18.518Z,0
2018-08-30T03:52:19.237Z,0
2018-08-30T03:53:19.969Z,0
2018-08-30T03:54:20.693Z,0
2018-08-30T03:55:21.512Z,0
2018-08-30T03:56:22.132Z,0
2018-08-30T03:57:23.115Z,0
2018-08-30T03:58:23.873Z,0
2018-08-30T03:59:24.598Z,0
2018-08-30T04:00:25.317Z,0
2018-08-30T04:01:26.032Z,0
2018-08-30T04:02:26.752Z,0
2018-08-30T04:03:27.519Z,0
2018-08-30T04:04:28.248Z,0
2018-08-30T04:05:28.964Z,0
2018-08-30T04:06:29.685Z,0
2018-08-30T04:07:30.406Z,0
2018-08-30T04:08:31.161Z,0
2018-08-30T04:09:31.897Z,0
2018-08-30T04:10:32.615Z,0
2018-08-30T04:11:33.347Z,0
2018-08-30T04:12:34.070Z,0
2018-08-30T04:13:34.869Z,0
2018-08-30T04:14:35.556Z,0
2018-08-30T04:15:36.274Z,0
2018-08-30T04:16:37.004Z,0
2018-08-30T04:17:37.727Z,0
2018-08-30T04:18:38.803Z,0
2018-08-30T04:19:39.525Z,0
2018-08-30T04:20:40.260Z,0
2018-08-30T04:21:40.983Z,0
2018-08-30T04:22:41.708Z,0
2018-08-30T04:23:42.428Z,0
2018-08-30T04:24:43.389Z,0
2018-08-30T04:25:44.179Z,0
2018-08-30T04:26:45.140Z,0
2018-08-30T04:27:45.857Z,0
2018-08-30T04:28:46.575Z,0
2018-08-30T04:29:47.554Z,0
2018-08-30T04:30:48.270Z,0
2018-08-30T04:31:48.993Z,0
2018-08-30T04:32:49.714Z,0
2018-08-30T04:33:51.000Z,0
2018-08-30T04:34:51.714Z,0
2018-08-30T04:35:52.440Z,0
2018-08-30T04:36:53.165Z,0
2018-08-30T04:37:53.886Z,0
2018-08-30T04:38:54.653Z,0
2018-08-30T04:39:55.375Z,0
2018-08-30T04:40:56.098Z,0
2018-08-30T04:41:56.825Z,0
2018-08-30T04:42:57.557Z,5
2018-08-30T04:43:58.273Z,0
2018-08-30T04:44:59.005Z,0
2018-08-30T04:46:00.003Z,5
2018-08-30T04:47:00.714Z,5
2018-08-30T04:48:01.676Z,5
2018-08-30T04:49:02.467Z,5
2018-08-30T04:50:03.201Z,5
2018-08-30T04:51:03.928Z,5
2018-08-30T04:52:04.663Z,5
2018-08-30T04:53:05.372Z,5
2018-08-30T04:54:06.101Z,5
2018-08-30T04:55:06.851Z,5
2018-08-30T04:56:07.567Z,5
2018-08-30T04:57:08.291Z,5
2018-08-30T04:58:09.017Z,5
2018-08-30T04:59:09.749Z,5
2018-08-30T05:00:10.482Z,5
2018-08-30T05:01:11.199Z,5
2018-08-30T05:02:11.924Z,5
2018-08-30T05:03:12.895Z,11
2018-08-30T05:04:13.609Z,11
2018-08-30T05:05:14.379Z,11
2018-08-30T05:06:15.116Z,11
2018-08-30T05:07:16.122Z,11
2018-08-30T05:08:16.853Z,11
2018-08-30T05:09:17.576Z,11
2018-08-30T05:10:18.351Z,11
2018-08-30T05:11:19.082Z,16
2018-08-30T05:12:19.804Z,16
2018-08-30T05:13:20.545Z,16
2018-08-30T05:14:21.268Z,16
2018-08-30T05:15:22.013Z,22
2018-08-30T05:16:22.738Z,22
2018-08-30T05:17:23.460Z,22
2018-08-30T05:18:24.191Z,28
2018-08-30T05:19:24.913Z,33
2018-08-30T05:20:25.636Z,33
2018-08-30T05:21:26.381Z,39
2018-08-30T05:22:27.097Z,33
2018-08-30T05:23:27.813Z,33
2018-08-30T05:24:28.543Z,22
2018-08-30T05:25:29.276Z,22
2018-08-30T05:26:29.992Z,22
2018-08-30T05:27:30.722Z,22
2018-08-30T05:28:31.448Z,22
2018-08-30T05:29:32.181Z,22
2018-08-30T05:30:32.913Z,16
2018-08-30T05:31:33.631Z,22
2018-08-30T05:32:34.708Z,28
2018-08-30T05:33:35.428Z,22
2018-08-30T05:34:36.147Z,22
2018-08-30T05:35:36.894Z,33
2018-08-30T05:36:37.602Z,33
2018-08-30T05:37:38.667Z,33
2018-08-30T05:38:39.397Z,33
2018-08-30T05:39:40.113Z,33
2018-08-30T05:40:40.858Z,39
2018-08-30T05:41:41.576Z,39
2018-08-30T05:42:42.311Z,45
2018-08-30T05:43:43.045Z,39
2018-08-30T05:44:44.157Z,45
2018-08-30T05:45:44.856Z,28
2018-08-30T05:46:45.581Z,28
2018-08-30T05:47:46.318Z,16
2018-08-30T05:48:47.037Z,16
2018-08-30T05:49:47.772Z,28
2018-08-30T05:50:48.500Z,28
2018-08-30T05:51:49.227Z,28
2018-08-30T05:52:49.950Z,33
2018-08-30T05:53:50.941Z,33
2018-08-30T05:54:52.169Z,39
2018-08-30T05:55:52.978Z,39
2018-08-30T05:56:53.809Z,39
2018-08-30T05:57:54.473Z,45
2018-08-30T05:58:55.201Z,56
2018-08-30T05:59:55.926Z,50
2018-08-30T06:00:56.719Z,39
2018-08-30T06:01:57.429Z,45
2018-08-30T06:02:59.110Z,61
2018-08-30T06:03:59.841Z,78
2018-08-30T06:05:00.568Z,101
2018-08-30T06:06:01.308Z,78
2018-08-30T06:07:02.389Z,78
2018-08-30T06:08:03.128Z,78
2018-08-30T06:09:04.210Z,106
2018-08-30T06:10:04.938Z,106
2018-08-30T06:11:05.917Z,84
2018-08-30T06:12:06.656Z,73
2018-08-30T06:13:07.829Z,73
2018-08-30T06:14:08.454Z,90
2018-08-30T06:15:09.184Z,101
2018-08-30T06:16:09.908Z,112
2018-08-30T06:17:10.630Z,106
2018-08-30T06:18:11.357Z,106
2018-08-30T06:19:12.106Z,84
2018-08-30T06:20:12.832Z,95
2018-08-30T06:21:13.563Z,129
2018-08-30T06:22:14.290Z,135
2018-08-30T06:23:15.079Z,185
2018-08-30T06:24:15.821Z,219
2018-08-30T06:25:16.547Z,202
2018-08-30T06:26:17.288Z,213
2018-08-30T06:27:18.016Z,168
2018-08-30T06:28:18.733Z,230
2018-08-30T06:29:19.501Z,236
2018-08-30T06:30:20.185Z,241
2018-08-30T06:31:20.904Z,219
2018-08-30T06:32:21.621Z,168
2018-08-30T06:33:22.397Z,168
2018-08-30T06:34:23.121Z,146
2018-08-30T06:35:23.868Z,118
2018-08-30T06:36:24.575Z,129
2018-08-30T06:37:25.300Z,146
2018-08-30T06:38:26.024Z,112
2018-08-30T06:39:26.765Z,112
2018-08-30T06:40:27.468Z,163
2018-08-30T06:41:28.203Z,180
2018-08-30T06:42:28.979Z,151
2018-08-30T06:43:29.719Z,129
2018-08-30T06:44:30.452Z,101
2018-08-30T06:45:31.230Z,123
2018-08-30T06:46:31.920Z,118
2018-08-30T06:47:32.658Z,123
2018-08-30T06:48:33.402Z,112
2018-08-30T06:49:34.113Z,146
2018-08-30T06:50:34.846Z,163
2018-08-30T06:51:35.575Z,202
2018-08-30T06:52:36.314Z,292
2018-08-30T06:53:37.087Z,281
2018-08-30T06:54:38.064Z,264
2018-08-30T06:55:38.794Z,286
2018-08-30T06:56:39.524Z,258
2018-08-30T06:57:40.276Z,191
2018-08-30T06:58:41.343Z,241
2018-08-30T06:59:42.082Z,241
2018-08-30T07:00:43.073Z,292
2018-08-30T07:01:43.804Z,208
2018-08-30T07:02:45.154Z,180
2018-08-30T07:03:46.243Z,208
2018-08-30T07:04:46.961Z,247
2018-08-30T07:05:47.694Z,303
2018-08-30T07:06:48.593Z,281
2018-08-30T07:07:49.502Z,264
2018-08-30T07:08:50.608Z,225
2018-08-30T07:09:52.230Z,270
2018-08-30T07:10:53.316Z,303
2018-08-30T07:11:54.040Z,303
2018-08-30T07:12:54.779Z,253
2018-08-30T07:13:55.506Z,298
2018-08-30T07:14:56.261Z,410
2018-08-30T07:15:57.033Z,360
2018-08-30T07:16:57.764Z,399
2018-08-30T07:17:58.493Z,427
2018-08-30T07:18:59.479Z,410
2018-08-30T07:20:00.212Z,343
2018-08-30T07:21:00.946Z,315
2018-08-30T07:22:01.674Z,382
2018-08-30T07:23:02.402Z,270
2018-08-30T07:24:03.122Z,292
2018-08-30T07:25:03.909Z,219
2018-08-30T07:26:04.930Z,258
2018-08-30T07:27:05.650Z,337
2018-08-30T07:28:06.393Z,337
2018-08-30T07:29:07.120Z,354
2018-08-30T07:30:07.853Z,495
2018-08-30T07:31:08.570Z,438
2018-08-30T07:32:09.297Z,376
2018-08-30T07:33:10.033Z,393
2018-08-30T07:34:10.767Z,382
2018-08-30T07:35:11.625Z,421
2018-08-30T07:36:12.277Z,466
2018-08-30T07:37:13.007Z,455
2018-08-30T07:38:13.733Z,399
2018-08-30T07:39:14.484Z,416
2018-08-30T07:40:15.218Z,450
2018-08-30T07:41:15.946Z,444
2018-08-30T07:42:16.691Z,438
2018-08-30T07:43:17.404Z,393
2018-08-30T07:44:18.299Z,416
2018-08-30T07:45:18.858Z,438
2018-08-30T07:46:20.215Z,376
2018-08-30T07:47:21.137Z,444
2018-08-30T07:48:21.786Z,506
2018-08-30T07:49:22.514Z,523
2018-08-30T07:50:23.240Z,590
2018-08-30T07:51:23.969Z,596
2018-08-30T07:52:24.746Z,590
2018-08-30T07:53:25.473Z,562
2018-08-30T07:54:26.207Z,506
2018-08-30T07:55:26.936Z,478
2018-08-30T07:56:27.664Z,438
2018-08-30T07:57:28.419Z,455
2018-08-30T07:58:29.175Z,472
2018-08-30T07:59:30.164Z,500
2018-08-30T08:00:30.886Z,472
2018-08-30T08:01:31.605Z,506
2018-08-30T08:02:32.329Z,489
2018-08-30T08:03:33.108Z,517
2018-08-30T08:04:33.851Z,556
2018-08-30T08:05:34.572Z,607
2018-08-30T08:06:35.553Z,613
2018-08-30T08:07:36.285Z,596
2018-08-30T08:08:37.073Z,675
2018-08-30T08:09:37.868Z,770
2018-08-30T08:10:38.599Z,675
2018-08-30T08:11:39.601Z,596
2018-08-30T08:12:40.337Z,686
2018-08-30T08:13:41.432Z,590
2018-08-30T08:14:42.322Z,585
2018-08-30T08:15:43.036Z,742
2018-08-30T08:16:43.791Z,511
2018-08-30T08:17:44.525Z,596
2018-08-30T08:18:45.528Z,585
2018-08-30T08:19:46.249Z,511
2018-08-30T08:20:46.979Z,511
2018-08-30T08:21:47.970Z,382
2018-08-30T08:22:48.696Z,405
2018-08-30T08:23:49.447Z,472
2018-08-30T08:24:50.196Z,466
2018-08-30T08:25:50.898Z,590
2018-08-30T08:26:51.625Z,399
2018-08-30T08:27:52.355Z,703
2018-08-30T08:29:54.028Z,601
2018-08-30T08:30:54.759Z,658
2018-08-30T08:31:55.487Z,871
2018-08-30T08:32:56.226Z,787
2018-08-30T08:33:56.955Z,995
2018-08-30T08:34:57.697Z,1203
2018-08-30T08:35:58.437Z,1186
2018-08-30T08:36:59.165Z,984
2018-08-30T08:37:59.900Z,905
2018-08-30T08:39:00.637Z,950
2018-08-30T08:40:01.358Z,1001
2018-08-30T08:41:02.131Z,990
2018-08-30T08:42:02.882Z,1001
2018-08-30T08:43:03.621Z,928
2018-08-30T08:44:04.348Z,838
2018-08-30T08:45:05.361Z,725
2018-08-30T08:46:06.091Z,753
2018-08-30T08:47:06.828Z,1153
2018-08-30T08:48:07.567Z,1198
2018-08-30T08:49:08.307Z,1423
2018-08-30T08:50:09.030Z,1456
2018-08-30T08:51:09.769Z,1198
2018-08-30T08:52:10.549Z,933
2018-08-30T08:53:11.287Z,843
2018-08-30T08:54:12.018Z,736
2018-08-30T08:55:13.011Z,742
2018-08-30T08:56:14.022Z,855
2018-08-30T08:57:14.803Z,787
2018-08-30T08:58:15.550Z,978
2018-08-30T08:59:16.324Z,1001
2018-08-30T09:00:17.015Z,1057
2018-08-30T09:01:17.794Z,1091
2018-08-30T09:02:18.492Z,1023
2018-08-30T09:03:19.242Z,950
2018-08-30T09:04:19.967Z,1035
2018-08-30T09:05:20.719Z,804
2018-08-30T09:06:21.450Z,703
2018-08-30T09:07:22.235Z,708
2018-08-30T09:08:22.915Z,815
2018-08-30T09:09:23.652Z,866
2018-08-30T09:10:24.639Z,1046
2018-08-30T09:11:25.714Z,2008
2018-08-30T09:12:26.446Z,1524
2018-08-30T09:13:27.197Z,2401
2018-08-30T09:14:27.951Z,1597
2018-08-30T09:15:28.659Z,1704
2018-08-30T09:16:29.385Z,1468
2018-08-30T09:17:30.130Z,1102
2018-08-30T09:18:30.963Z,1192
2018-08-30T09:19:31.643Z,1012
2018-08-30T09:20:32.668Z,1130
2018-08-30T09:21:33.386Z,1209
2018-08-30T09:22:34.111Z,1243
2018-08-30T09:23:34.843Z,905
2018-08-30T09:24:35.952Z,843
2018-08-30T09:25:36.767Z,832
2018-08-30T09:26:37.564Z,1012
2018-08-30T09:27:38.322Z,877
2018-08-30T09:28:39.055Z,967
2018-08-30T09:29:39.802Z,1333
2018-08-30T09:30:40.525Z,877
2018-08-30T09:31:41.269Z,725
2018-08-30T09:32:42.005Z,793
2018-08-30T09:33:42.794Z,1113
2018-08-30T09:34:43.473Z,1327
2018-08-30T09:35:44.213Z,978
2018-08-30T09:36:44.955Z,1563
2018-08-30T09:37:45.687Z,1215
2018-08-30T09:38:46.428Z,2261
2018-08-30T09:39:47.172Z,2553
2018-08-30T09:40:47.908Z,1957
2018-08-30T09:41:48.632Z,2430
2018-08-30T09:42:49.376Z,1963
2018-08-30T09:43:50.169Z,1890
2018-08-30T09:44:50.843Z,1575
2018-08-30T09:45:51.906Z,1102
2018-08-30T09:46:52.634Z,1057
2018-08-30T09:47:54.040Z,950
2018-08-30T09:48:55.200Z,798
2018-08-30T09:49:56.014Z,838
2018-08-30T09:50:56.985Z,810
2018-08-30T09:51:57.738Z,849
2018-08-30T09:52:58.465Z,860
2018-08-30T09:53:59.208Z,855
2018-08-30T09:54:59.937Z,928
2018-08-30T09:56:00.688Z,956
2018-08-30T09:57:01.501Z,967
2018-08-30T09:58:02.155Z,1074
2018-08-30T09:59:02.893Z,1164
2018-08-30T10:00:03.636Z,1108
2018-08-30T10:01:04.369Z,995
2018-08-30T10:02:05.099Z,1423
2018-08-30T10:03:06.101Z,877
2018-08-30T10:04:06.834Z,922
2018-08-30T10:05:07.811Z,973
2018-08-30T10:06:08.532Z,967
2018-08-30T10:07:09.268Z,849
2018-08-30T10:08:10.354Z,787
2018-08-30T10:09:11.090Z,928
2018-08-30T10:10:11.828Z,990
2018-08-30T10:11:12.572Z,922
2018-08-30T10:12:13.309Z,1018
2018-08-30T10:13:14.085Z,1552
2018-08-30T10:14:14.816Z,1451
2018-08-30T10:15:15.552Z,1563
2018-08-30T10:16:16.299Z,1468
2018-08-30T10:17:17.022Z,3273
2018-08-30T10:18:17.769Z,3116
2018-08-30T10:19:18.504Z,1479
2018-08-30T10:20:19.237Z,1383
2018-08-30T10:21:20.024Z,1479
2018-08-30T10:22:20.711Z,1710
2018-08-30T10:23:21.448Z,1631
2018-08-30T10:24:22.173Z,1777
2018-08-30T10:25:22.954Z,2475
2018-08-30T10:26:23.647Z,2660
2018-08-30T10:27:24.389Z,1558
2018-08-30T10:28:25.122Z,1350
2018-08-30T10:29:25.856Z,1248
2018-08-30T10:30:26.586Z,1783
2018-08-30T10:31:27.652Z,1102
2018-08-30T10:32:28.353Z,1046
2018-08-30T10:33:29.092Z,973
2018-08-30T10:34:29.828Z,928
2018-08-30T10:35:30.558Z,984
2018-08-30T10:36:31.336Z,1102
2018-08-30T10:37:32.059Z,1788
2018-08-30T10:38:32.809Z,2880
2018-08-30T10:39:33.539Z,3060
2018-08-30T10:40:34.279Z,1395
2018-08-30T10:41:35.065Z,2970
2018-08-30T10:42:35.807Z,2199
2018-08-30T10:43:36.542Z,3076
2018-08-30T10:44:37.293Z,2784
2018-08-30T10:45:38.030Z,3127
2018-08-30T10:46:38.762Z,2379
2018-08-30T10:47:39.546Z,1659
2018-08-30T10:48:40.274Z,2773
2018-08-30T10:49:41.086Z,1558
2018-08-30T10:50:41.773Z,1946
2018-08-30T10:51:42.507Z,3015
2018-08-30T10:52:43.492Z,2913
2018-08-30T10:53:44.234Z,3009
2018-08-30T10:54:44.963Z,2823
2018-08-30T10:55:45.700Z,1192
2018-08-30T10:56:46.437Z,1355
2018-08-30T10:57:47.179Z,1074
2018-08-30T10:58:47.909Z,894
2018-08-30T10:59:48.651Z,956
2018-08-30T11:00:49.381Z,1108
2018-08-30T11:01:50.141Z,1361
2018-08-30T11:02:50.848Z,2896
2018-08-30T11:03:51.608Z,2047
2018-08-30T11:04:52.325Z,1873
2018-08-30T11:05:53.047Z,2379
2018-08-30T11:06:53.813Z,2503
2018-08-30T11:07:54.575Z,1400
2018-08-30T11:08:55.612Z,1271
2018-08-30T11:09:56.366Z,1608
2018-08-30T11:10:57.091Z,1732
2018-08-30T11:11:57.820Z,2823
2018-08-30T11:12:58.656Z,1350
2018-08-30T11:13:59.311Z,1293
2018-08-30T11:15:00.043Z,1130
2018-08-30T11:16:00.780Z,961
2018-08-30T11:17:01.511Z,866
2018-08-30T11:18:02.493Z,843
2018-08-30T11:19:03.708Z,922
2018-08-30T11:20:04.439Z,1192
2018-08-30T11:21:05.166Z,2970
2018-08-30T11:22:06.123Z,2851
2018-08-30T11:23:06.851Z,1760
2018-08-30T11:24:07.580Z,607
2018-08-30T11:25:09.110Z,472
2018-08-30T11:26:09.836Z,461
2018-08-30T11:27:10.565Z,506
2018-08-30T11:28:11.305Z,669
2018-08-30T11:29:12.045Z,894
2018-08-30T11:30:13.037Z,1248
2018-08-30T11:31:13.773Z,2784
2018-08-30T11:32:14.503Z,1051
2018-08-30T11:33:15.248Z,3020
2018-08-30T11:34:15.984Z,3071
2018-08-30T11:35:16.724Z,3031
2018-08-30T11:36:17.487Z,3076
2018-08-30T11:37:18.233Z,3144
2018-08-30T11:38:18.985Z,3178
2018-08-30T11:39:19.724Z,3031
2018-08-30T11:40:20.474Z,973
2018-08-30T11:41:21.300Z,883
2018-08-30T11:42:21.951Z,810
2018-08-30T11:43:22.698Z,568
2018-08-30T11:44:23.417Z,444
2018-08-30T11:45:24.146Z,556
2018-08-30T11:46:24.910Z,748
2018-08-30T11:47:25.642Z,2705
2018-08-30T11:48:26.378Z,1001
2018-08-30T11:49:27.103Z,2941
2018-08-30T11:50:27.837Z,2823
2018-08-30T11:51:28.571Z,2829
2018-08-30T11:52:29.305Z,2565
2018-08-30T11:53:30.039Z,2733
2018-08-30T11:54:30.774Z,1080
2018-08-30T11:55:31.504Z,2801
2018-08-30T11:56:32.246Z,2694
2018-08-30T11:57:32.987Z,2632
2018-08-30T11:58:33.713Z,832
2018-08-30T11:59:34.457Z,815
2018-08-30T12:00:35.207Z,2593
2018-08-30T12:01:35.941Z,2587
2018-08-30T12:02:36.932Z,2728
2018-08-30T12:03:37.685Z,2829
2018-08-30T12:04:38.462Z,2835
2018-08-30T12:05:39.204Z,2812
2018-08-30T12:06:39.937Z,2795
2018-08-30T12:07:40.939Z,2801
2018-08-30T12:08:41.671Z,2790
2018-08-30T12:09:42.400Z,2750
2018-08-30T12:10:43.517Z,2784
2018-08-30T12:11:44.231Z,2975
2018-08-30T12:12:44.972Z,3110
2018-08-30T12:13:45.953Z,1507
2018-08-30T12:14:46.687Z,3172
2018-08-30T12:15:47.422Z,2632
2018-08-30T12:16:48.170Z,1608
2018-08-30T12:17:48.896Z,1175
2018-08-30T12:18:49.669Z,2851
2018-08-30T12:19:50.394Z,2806
2018-08-30T12:20:51.130Z,2700
2018-08-30T12:21:51.912Z,2581
2018-08-30T12:22:52.648Z,2475
2018-08-30T12:23:53.374Z,2463
2018-08-30T12:24:54.114Z,2536
2018-08-30T12:25:54.839Z,2328
2018-08-30T12:26:55.626Z,1575
2018-08-30T12:27:56.358Z,2964
2018-08-30T12:28:57.203Z,1226
2018-08-30T12:29:57.848Z,1614
2018-08-30T12:30:58.574Z,1282
2018-08-30T12:31:59.357Z,1423
2018-08-30T12:33:00.113Z,1141
2018-08-30T12:34:00.848Z,1125
2018-08-30T12:35:01.624Z,1158
2018-08-30T12:36:02.541Z,1085
2018-08-30T12:37:03.114Z,967
2018-08-30T12:38:03.811Z,843
2018-08-30T12:39:04.552Z,725
2018-08-30T12:40:05.402Z,691
2018-08-30T12:41:06.082Z,686
2018-08-30T12:42:06.762Z,624
2018-08-30T12:43:07.489Z,506
2018-08-30T12:44:08.275Z,433
2018-08-30T12:45:08.971Z,450
2018-08-30T12:46:09.699Z,511
2018-08-30T12:47:10.440Z,523
2018-08-30T12:48:11.531Z,736
2018-08-30T12:49:12.244Z,1012
2018-08-30T12:50:13.083Z,860
2018-08-30T12:51:13.858Z,736
2018-08-30T12:52:14.573Z,703
2018-08-30T12:53:15.307Z,720
2018-08-30T12:54:16.387Z,753
2018-08-30T12:55:17.103Z,753
2018-08-30T12:56:17.864Z,714
2018-08-30T12:57:18.573Z,686
2018-08-30T12:58:19.391Z,675
2018-08-30T12:59:20.083Z,686
2018-08-30T13:00:20.912Z,736
2018-08-30T13:01:21.588Z,787
2018-08-30T13:02:22.313Z,793
2018-08-30T13:03:23.079Z,776
2018-08-30T13:04:23.934Z,753
2018-08-30T13:05:24.604Z,748
2018-08-30T13:06:25.322Z,759
2018-08-30T13:07:26.005Z,781
2018-08-30T13:08:26.865Z,815
2018-08-30T13:09:27.567Z,871
2018-08-30T13:10:28.265Z,900
2018-08-30T13:11:29.121Z,894
2018-08-30T13:12:29.830Z,877
2018-08-30T13:13:30.466Z,855
2018-08-30T13:14:31.341Z,855
2018-08-30T13:15:32.094Z,877
2018-08-30T13:16:32.653Z,945
2018-08-30T13:17:33.407Z,1023
2018-08-30T13:18:34.164Z,1102
2018-08-30T13:19:34.880Z,1136
2018-08-30T13:20:35.631Z,1130
2018-08-30T13:21:36.518Z,1130
2018-08-30T13:22:37.305Z,1113
2018-08-30T13:23:37.862Z,1096
2018-08-30T13:24:38.592Z,1040
2018-08-30T13:25:39.363Z,978
2018-08-30T13:26:40.255Z,922
2018-08-30T13:27:40.886Z,871
2018-08-30T13:28:41.553Z,821
2018-08-30T13:29:42.279Z,776
2018-08-30T13:30:43.096Z,736
2018-08-30T13:31:43.891Z,714
2018-08-30T13:32:44.718Z,697
2018-08-30T13:33:45.440Z,697
2018-08-30T13:34:46.062Z,703
2018-08-30T13:35:46.901Z,720
2018-08-30T13:36:47.729Z,731
2018-08-30T13:37:48.431Z,759
2018-08-30T13:38:49.109Z,787
2018-08-30T13:39:49.738Z,826
2018-08-30T13:40:50.826Z,860
2018-08-30T13:41:51.338Z,894
2018-08-30T13:42:52.256Z,911
2018-08-30T13:43:53.406Z,888
2018-08-30T13:44:53.999Z,860
2018-08-30T13:45:54.603Z,843
2018-08-30T13:46:55.644Z,855
2018-08-30T13:47:56.302Z,860
2018-08-30T13:48:57.020Z,883
2018-08-30T13:49:57.560Z,928
2018-08-30T13:50:58.348Z,928
2018-08-30T13:51:59.357Z,945
2018-08-30T13:52:59.794Z,1113
2018-08-30T13:54:00.430Z,1063
2018-08-30T13:55:01.226Z,1068
2018-08-30T13:56:02.060Z,1192
2018-08-30T13:57:02.941Z,1411
2018-08-30T13:58:03.562Z,1305
2018-08-30T13:59:04.527Z,1513
2018-08-30T14:00:05.172Z,2064
2018-08-30T14:01:05.884Z,1591
2018-08-30T14:02:06.389Z,1372
2018-08-30T14:03:07.078Z,1760
2018-08-30T14:04:07.875Z,1563
2018-08-30T14:05:08.700Z,1445
2018-08-30T14:06:09.292Z,1479
2018-08-30T14:07:10.043Z,1276
2018-08-30T14:08:10.771Z,1108
2018-08-30T14:09:11.619Z,686
2018-08-30T14:10:12.322Z,1164
2018-08-30T14:11:13.070Z,1046
2018-08-30T14:12:14.402Z,753
2018-08-30T14:13:15.184Z,731
2018-08-30T14:14:15.928Z,703